Time;durP1;ratioP1;P1;durP2;ratioP2;P2;SDS_P1;SDS_P2;PMS_P1;PMS_P2;Temp;Humidity;BMP_temperature;BMP_pressure;BME280_temperature;BME280_humidity;BME280_pressure;Samples;Min_cycle;Max_cycle;Signal;HPM_P1;HPM_P2
2022/03/01 00:03:22;;;;;;;29.80;14.57;;;9.30;74.70;;;;;;12858162;23;20232;-83
2022/03/01 00:08:24;;;;;;;23.93;13.10;;;9.50;74.30;;;;;;12855941;23;20206;-83
2022/03/01 00:13:27;;;;;;;26.63;12.70;;;9.50;75.00;;;;;;12857279;23;20203;-83
2022/03/01 00:18:29;;;;;;;24.07;11.77;;;9.70;74.60;;;;;;12857433;23;20513;-83
2022/03/01 00:23:34;;;;;;;25.30;14.57;;;9.40;75.50;;;;;;12857474;23;20175;-83
2022/03/01 00:28:37;;;;;;;23.83;12.67;;;10.10;73.40;;;;;;12856023;23;20684;-83
2022/03/01 00:33:39;;;;;;;20.40;11.13;;;10.50;72.90;;;;;;12857020;23;20169;-83
2022/03/01 00:38:42;;;;;;;22.80;12.13;;;10.40;73.30;;;;;;12873766;23;20548;-83
2022/03/01 00:43:44;;;;;;;35.10;18.53;;;10.20;72.40;;;;;;12862975;23;20246;-83
2022/03/01 00:48:47;;;;;;;29.90;17.40;;;9.50;71.80;;;;;;12910076;23;20196;-83
2022/03/01 00:53:50;;;;;;;43.13;20.50;;;8.30;75.90;;;;;;12891782;23;20198;-84
2022/03/01 00:58:52;;;;;;;33.37;18.70;;;8.00;78.70;;;;;;12932160;23;20177;-83
2022/03/01 01:03:54;;;;;;;24.10;12.03;;;8.60;75.50;;;;;;12891896;23;20181;-84
2022/03/01 01:08:57;;;;;;;24.03;15.20;;;9.30;76.80;;;;;;12919106;23;20193;-83
2022/03/01 01:13:59;;;;;;;25.50;14.27;;;9.20;75.00;;;;;;12918703;23;20172;-83
2022/03/01 01:19:02;;;;;;;24.83;13.43;;;9.50;75.70;;;;;;12891440;23;20175;-83
2022/03/01 01:24:05;;;;;;;37.70;19.47;;;9.50;74.60;;;;;;12918353;23;20218;-83
2022/03/01 01:29:07;;;;;;;31.00;15.97;;;7.70;74.70;;;;;;12918405;23;20173;-83
2022/03/01 01:34:10;;;;;;;28.67;15.83;;;8.20;80.40;;;;;;12890629;23;20176;-83
2022/03/01 01:39:13;;;;;;;24.20;13.77;;;8.10;79.50;;;;;;12918560;23;20211;-83
2022/03/01 01:44:15;;;;;;;26.83;15.63;;;8.80;78.60;;;;;;12918085;23;20269;-83
2022/03/01 01:49:19;;;;;;;25.23;13.33;;;8.90;77.10;;;;;;12918242;23;20219;-83
2022/03/01 01:54:21;;;;;;;21.73;13.03;;;9.00;77.60;;;;;;12918266;23;20166;-83
2022/03/01 01:59:24;;;;;;;23.50;13.53;;;9.30;77.10;;;;;;12902850;23;20221;-83
2022/03/01 02:04:28;;;;;;;24.60;14.03;;;10.00;74.50;;;;;;12917985;23;20166;-83
2022/03/01 02:09:30;;;;;;;22.17;12.70;;;9.00;75.30;;;;;;12891344;23;20505;-84
2022/03/01 02:14:35;;;;;;;29.23;15.27;;;9.10;77.10;;;;;;12901548;23;20174;-84
2022/03/01 02:19:38;;;;;;;28.03;14.17;;;9.30;75.90;;;;;;12917282;23;20169;-83
2022/03/01 02:24:41;;;;;;;24.37;12.83;;;9.30;76.60;;;;;;12907927;23;20185;-84
2022/03/01 02:29:43;;;;;;;24.33;13.47;;;9.80;75.30;;;;;;12889564;23;20177;-84
2022/03/01 02:34:47;;;;;;;26.63;15.17;;;9.50;75.20;;;;;;12890157;23;20180;-83
2022/03/01 02:39:50;;;;;;;20.90;12.10;;;9.20;74.40;;;;;;12917422;23;20557;-83
2022/03/01 02:44:52;;;;;;;22.43;12.70;;;9.40;76.70;;;;;;12916670;23;20244;-83
2022/03/01 02:49:55;;;;;;;42.87;23.07;;;9.80;74.50;;;;;;12936021;23;20166;-84
2022/03/01 02:54:58;;;;;;;24.40;12.13;;;9.90;70.20;;;;;;12889321;23;20212;-83
2022/03/01 03:00:01;;;;;;;28.70;13.63;;;8.10;79.10;;;;;;12890790;23;20175;-84
2022/03/01 03:05:04;;;;;;;39.57;19.67;;;9.00;78.20;;;;;;12916765;23;20193;-83
2022/03/01 03:10:07;;;;;;;22.27;13.77;;;9.30;74.90;;;;;;12936874;23;20398;-83
2022/03/01 03:15:10;;;;;;;31.43;14.37;;;9.30;76.00;;;;;;12894071;23;20655;-83
2022/03/01 03:20:13;;;;;;;24.37;14.63;;;9.30;75.50;;;;;;12893505;23;20504;-83
2022/03/01 03:25:16;;;;;;;29.70;17.37;;;9.30;75.40;;;;;;12893639;23;20185;-83
2022/03/01 03:30:19;;;;;;;39.63;19.90;;;8.00;77.40;;;;;;12920347;23;20174;-83
2022/03/01 03:35:23;;;;;;;20.73;12.63;;;7.00;80.70;;;;;;12893704;23;20180;-84
2022/03/01 03:40:26;;;;;;;25.17;13.70;;;8.00;82.80;;;;;;12893564;23;20177;-83
2022/03/01 03:45:28;;;;;;;28.00;14.20;;;8.30;79.50;;;;;;12892045;23;20211;-83
2022/03/01 03:50:31;;;;;;;31.37;16.37;;;8.90;78.20;;;;;;12920323;23;20215;-83
2022/03/01 03:55:34;;;;;;;24.93;14.57;;;9.00;76.10;;;;;;12893774;23;20177;-83
2022/03/01 04:00:36;;;;;;;26.97;14.57;;;9.50;75.60;;;;;;12920335;23;20173;-83
2022/03/01 04:05:39;;;;;;;19.63;10.80;;;8.90;76.50;;;;;;12892248;23;20251;-83
2022/03/01 04:10:41;;;;;;;23.37;14.70;;;9.50;77.70;;;;;;12919912;23;20817;-84
2022/03/01 04:15:44;;;;;;;26.77;15.23;;;10.10;73.10;;;;;;12919935;23;20173;-84
2022/03/01 04:20:47;;;;;;;42.47;22.20;;;9.90;74.70;;;;;;12893530;23;20166;-83
2022/03/01 04:25:49;;;;;;;27.33;14.60;;;8.40;69.00;;;;;;12919310;23;20564;-83
2022/03/01 04:30:52;;;;;;;24.20;13.03;;;7.30;81.90;;;;;;12891623;23;20240;-83
2022/03/01 04:35:59;;;;;;;34.63;19.27;;;8.80;80.80;;;;;;12891738;23;20568;-83
2022/03/01 04:41:02;;;;;;;33.10;19.17;;;7.90;74.70;;;;;;12937208;23;20169;-83
2022/03/01 04:46:05;;;;;;;36.97;17.83;;;7.10;77.90;;;;;;12918919;23;20240;-83
2022/03/01 04:51:07;;;;;;;33.43;19.00;;;6.20;83.40;;;;;;12918710;23;20215;-83
2022/03/01 04:56:10;;;;;;;34.73;18.33;;;5.50;87.80;;;;;;12918561;23;20172;-83
2022/03/01 05:01:12;;;;;;;30.00;17.23;;;6.50;86.00;;;;;;12917437;23;20185;-83
2022/03/01 05:06:15;;;;;;;37.27;20.03;;;6.20;84.60;;;;;;12891835;23;20197;-83
2022/03/01 05:11:17;;;;;;;28.10;15.30;;;5.60;86.80;;;;;;12918212;23;20164;-83
2022/03/01 05:16:20;;;;;;;23.70;13.40;;;6.30;90.40;;;;;;12916678;23;20226;-83
2022/03/01 05:21:23;;;;;;;37.50;20.67;;;7.90;84.80;;;;;;12888660;23;20181;-83
2022/03/01 05:26:25;;;;;;;25.13;12.13;;;6.70;80.30;;;;;;12915715;23;20187;-84
2022/03/01 05:31:28;;;;;;;28.53;14.97;;;8.30;85.50;;;;;;12915876;23;20191;-83
2022/03/01 05:36:30;;;;;;;23.27;12.40;;;8.10;81.90;;;;;;12918147;23;20172;-84
2022/03/01 05:41:33;;;;;;;27.40;13.23;;;8.10;83.20;;;;;;12918394;23;20167;-84
2022/03/01 05:46:36;;;;;;;33.70;18.17;;;8.40;81.20;;;;;;12890320;23;20209;-84
2022/03/01 05:51:39;;;;;;;24.60;13.70;;;8.80;78.80;;;;;;12891428;23;20169;-84
2022/03/01 05:56:42;;;;;;;22.97;12.43;;;8.70;80.40;;;;;;12889121;23;20182;-84
2022/03/01 06:01:45;;;;;;;57.03;32.10;;;9.10;79.30;;;;;;12916154;23;20177;-84
2022/03/01 06:06:47;;;;;;;29.07;15.67;;;0.60;68.40;;;;;;12911400;23;20552;-90
2022/03/01 06:11:50;;;;;;;35.70;19.53;;;0.70;99.90;;;;;;12937428;23;20167;-92
2022/03/01 06:16:52;;;;;;;47.43;21.87;;;8.20;85.90;;;;;;12865998;23;20224;-93
2022/03/01 06:21:56;;;;;;;44.93;23.47;;;9.90;64.20;;;;;;12891623;23;20204;-93
2022/03/01 06:26:58;;;;;;;40.13;22.00;;;10.50;60.90;;;;;;12919001;23;20246;-92
2022/03/01 06:32:01;;;;;;;41.77;22.00;;;11.20;59.10;;;;;;12890714;23;20189;-92
2022/03/01 06:37:04;;;;;;;44.23;23.00;;;11.50;58.20;;;;;;12892444;23;20166;-92
2022/03/01 06:42:07;;;;;;;40.60;20.30;;;11.90;57.60;;;;;;12892419;23;20167;-94
2022/03/01 06:47:09;;;;;;;43.43;21.33;;;12.00;57.60;;;;;;12918946;23;20582;-92
2022/03/01 06:52:12;;;;;;;39.80;19.67;;;12.20;57.20;;;;;;12921943;23;20170;-93
2022/03/01 06:57:20;;;;;;;37.07;21.33;;;12.20;57.50;;;;;;12915529;23;20201;-91
2022/03/01 07:02:22;;;;;;;35.23;20.93;;;12.10;57.90;;;;;;12893001;23;20175;-92
2022/03/01 07:07:25;;;;;;;34.17;19.63;;;12.00;58.40;;;;;;12867800;23;20224;-93
2022/03/01 07:12:27;;;;;;;53.97;29.33;;;11.70;59.30;;;;;;12890889;23;20170;-89
2022/03/01 07:17:31;;;;;;;42.57;22.60;;;1.50;95.10;;;;;;12865737;23;20569;-94
2022/03/01 07:22:33;;;;;;;52.47;29.17;;;9.50;74.00;;;;;;12938121;23;20167;-93
2022/03/01 07:27:43;;;;;;;51.10;29.10;;;10.70;62.00;;;;;;12865925;23;20195;-93
2022/03/01 07:32:46;;;;;;;55.53;29.20;;;11.00;59.10;;;;;;12892783;23;20290;-92
2022/03/01 07:37:49;;;;;;;49.07;27.97;;;10.90;58.90;;;;;;12892123;23;20169;-93
2022/03/01 07:42:53;;;;;;;56.97;31.73;;;11.10;58.70;;;;;;12918336;23;20205;-93
2022/03/01 07:47:57;;;;;;;44.77;27.60;;;11.10;57.60;;;;;;12918814;23;20190;-92
2022/03/01 07:52:59;;;;;;;52.07;29.97;;;11.10;59.40;;;;;;12890175;23;20248;-92
2022/03/01 07:58:02;;;;;;;52.67;29.50;;;11.10;59.20;;;;;;12893190;23;20208;-93
2022/03/01 08:03:05;;;;;;;63.93;33.23;;;10.80;59.60;;;;;;12895582;23;20173;-93
2022/03/01 08:08:08;;;;;;;48.37;26.43;;;11.20;58.30;;;;;;12870316;23;20201;-93
2022/03/01 08:13:11;;;;;;;52.17;28.33;;;11.20;59.40;;;;;;12896514;23;20174;-93
2022/03/01 08:18:13;;;;;;;43.60;25.73;;;10.50;59.80;;;;;;12896626;23;20235;-93
2022/03/01 08:23:16;;;;;;;49.40;26.43;;;10.30;60.80;;;;;;12896769;23;20228;-95
2022/03/01 08:28:19;;;;;;;45.67;25.53;;;10.70;60.40;;;;;;12897278;23;20182;-94
2022/03/01 08:33:24;;;;;;;42.63;24.37;;;11.10;61.40;;;;;;12925183;23;20166;-95
2022/03/01 08:38:27;;;;;;;40.70;23.80;;;11.60;60.20;;;;;;12873760;23;20197;-94
2022/03/01 08:43:30;;;;;;;39.93;22.87;;;11.70;59.70;;;;;;12873485;23;20241;-95
2022/03/01 08:48:34;;;;;;;34.40;21.47;;;12.10;59.20;;;;;;12944867;23;20518;-95
2022/03/01 08:53:37;;;;;;;39.67;23.03;;;11.70;59.70;;;;;;12925970;23;20162;-94
2022/03/01 08:58:40;;;;;;;44.00;22.97;;;11.20;60.80;;;;;;12898425;23;20182;-93
2022/03/01 09:03:44;;;;;;;40.90;21.63;;;11.70;59.60;;;;;;12898079;23;20235;-93
2022/03/01 09:08:47;;;;;;;38.33;21.53;;;11.60;61.40;;;;;;12897479;23;20186;-94
2022/03/01 09:13:50;;;;;;;35.03;20.60;;;11.80;61.00;;;;;;12896012;23;20244;-93
2022/03/01 09:18:53;;;;;;;33.47;20.23;;;10.80;62.50;;;;;;12896518;23;20201;-93
2022/03/01 09:23:55;;;;;;;35.67;20.50;;;11.00;61.10;;;;;;12941321;23;20200;-94
2022/03/01 09:28:58;;;;;;;27.67;16.53;;;11.00;62.00;;;;;;12894991;23;20198;-94
2022/03/01 09:34:01;;;;;;;32.87;20.47;;;10.10;61.00;;;;;;12869297;23;20212;-93
2022/03/01 09:39:06;;;;;;;33.97;20.30;;;10.60;62.70;;;;;;12893887;23;20178;-94
2022/03/01 09:44:09;;;;;;;35.90;19.77;;;11.30;63.70;;;;;;12920461;23;20240;-93
2022/03/01 09:49:12;;;;;;;38.73;20.53;;;11.20;61.80;;;;;;12892747;23;20273;-92
2022/03/01 09:54:14;;;;;;;31.33;18.10;;;11.80;62.30;;;;;;12868517;23;20170;-93
2022/03/01 09:59:18;;;;;;;29.63;17.90;;;11.90;61.50;;;;;;12934842;23;20239;-93
2022/03/01 10:04:21;;;;;;;23.87;15.57;;;12.20;60.80;;;;;;12893939;23;20628;-94
2022/03/01 10:09:26;;;;;;;21.47;14.03;;;12.20;59.90;;;;;;12892427;23;20198;-93
2022/03/01 10:14:31;;;;;;;24.37;14.23;;;10.90;57.30;;;;;;12892396;23;20200;-94
2022/03/01 10:19:34;;;;;;;27.57;17.90;;;10.30;59.20;;;;;;12919642;23;20228;-92
2022/03/01 10:24:47;;;;;;;30.37;15.67;;;11.70;62.40;;;;;;12893968;23;20178;-94
2022/03/01 10:29:50;;;;;;;30.87;17.13;;;11.80;59.60;;;;;;12870199;23;20841;-94
2022/03/01 10:35:07;;;;;;;30.63;17.83;;;11.40;62.10;;;;;;12913728;23;20167;-94
2022/03/01 10:40:22;;;;;;;31.03;17.17;;;11.50;63.50;;;;;;12894737;23;20224;-94
2022/03/01 10:45:35;;;;;;;15.07;9.73;;;11.20;63.50;;;;;;12868426;23;20272;-93
2022/03/01 10:50:40;;;;;;;31.37;18.20;;;11.10;56.90;;;;;;12869528;23;20576;-93
2022/03/01 10:55:43;;;;;;;17.67;11.53;;;11.40;63.80;;;;;;12919998;23;20163;-93
2022/03/01 11:00:46;;;;;;;20.87;12.93;;;11.90;57.10;;;;;;12890792;23;20644;-93
2022/03/01 11:05:49;;;;;;;26.63;16.50;;;11.60;58.70;;;;;;12892155;23;20166;-92
2022/03/01 11:11:10;;;;;;;22.33;14.63;;;11.30;62.90;;;;;;12912203;23;20185;-92
2022/03/01 11:16:36;;;;;;;25.40;15.57;;;10.90;58.70;;;;;;12865710;23;20361;-92
2022/03/01 11:21:43;;;;;;;30.07;15.73;;;10.90;64.20;;;;;;12890110;23;20178;-92
2022/03/01 11:26:46;;;;;;;20.07;12.83;;;11.50;62.70;;;;;;12935024;23;20509;-92
2022/03/01 11:31:58;;;;;;;18.27;13.13;;;11.20;56.60;;;;;;12891569;23;20179;-92
2022/03/01 11:37:02;;;;;;;23.83;14.70;;;10.40;62.60;;;;;;12894336;23;21202;-92
2022/03/01 11:42:07;;;;;;;26.97;15.57;;;11.20;57.20;;;;;;12894276;23;20231;-91
2022/03/01 11:47:31;;;;;;;20.53;12.90;;;11.30;65.10;;;;;;12893677;23;20201;-92
2022/03/01 11:52:54;;;;;;;20.77;12.23;;;11.70;59.70;;;;;;12921246;23;20170;-92
2022/03/01 11:57:58;;;;;;;22.83;14.13;;;10.60;58.70;;;;;;12894171;23;20228;-92
2022/03/01 12:03:02;;;;;;;14.37;9.77;;;10.90;64.00;;;;;;12894054;23;20505;-92
2022/03/01 12:08:12;;;;;;;20.90;12.30;;;10.80;59.10;;;;;;12914179;23;20189;-92
2022/03/01 12:13:32;;;;;;;24.97;14.67;;;10.30;58.90;;;;;;12915509;23;20280;-94
2022/03/01 12:18:37;;;;;;;23.13;13.20;;;10.30;66.60;;;;;;12895219;23;20560;-92
2022/03/01 12:23:42;;;;;;;21.80;13.63;;;9.60;65.90;;;;;;12870036;23;20494;-92
2022/03/01 12:28:47;;;;;;;22.83;14.63;;;10.60;66.10;;;;;;12868491;23;20197;-92
2022/03/01 12:33:54;;;;;;;24.70;13.40;;;10.80;63.10;;;;;;12869481;23;20178;-91
2022/03/01 12:39:02;;;;;;;23.67;13.77;;;11.50;63.20;;;;;;12868714;23;20201;-92
2022/03/01 12:44:08;;;;;;;23.87;12.53;;;11.90;61.30;;;;;;12892751;23;20271;-92
2022/03/01 12:49:12;;;;;;;26.80;14.37;;;11.80;54.80;;;;;;12913006;23;20505;-92
2022/03/01 12:54:21;;;;;;;22.60;13.97;;;11.10;63.80;;;;;;12868047;23;20490;-91
2022/03/01 12:59:29;;;;;;;18.40;12.00;;;11.10;62.10;;;;;;12868316;23;20186;-92
2022/03/01 13:04:34;;;;;;;18.50;10.37;;;10.70;64.80;;;;;;12938720;23;20192;-92
2022/03/01 13:09:37;;;;;;;19.43;12.23;;;9.80;56.80;;;;;;12920135;23;20247;-92
2022/03/01 13:14:39;;;;;;;17.87;11.77;;;10.30;61.80;;;;;;12919946;23;20174;-91
2022/03/01 13:19:44;;;;;;;18.93;11.77;;;9.80;57.10;;;;;;12893482;23;20196;-91
2022/03/01 13:24:51;;;;;;;19.20;12.00;;;9.60;57.10;;;;;;12867839;23;20231;-91
2022/03/01 13:29:54;;;;;;;15.03;10.93;;;8.60;60.00;;;;;;12867144;23;20200;-92
2022/03/01 13:35:07;;;;;;;14.30;10.87;;;9.10;60.70;;;;;;12892459;23;20195;-91
2022/03/01 13:40:15;;;;;;;21.13;11.87;;;9.00;61.50;;;;;;12910708;23;20173;-91
2022/03/01 13:45:22;;;;;;;15.70;10.30;;;9.60;63.50;;;;;;12867740;23;20208;-91
2022/03/01 13:50:24;;;;;;;23.23;12.70;;;10.60;64.70;;;;;;12893520;23;20201;-91
2022/03/01 13:55:27;;;;;;;16.73;11.33;;;10.50;68.10;;;;;;12918721;23;20169;-91
2022/03/01 14:00:37;;;;;;;18.20;11.23;;;10.80;62.30;;;;;;12865728;23;20568;-91
2022/03/01 14:05:56;;;;;;;18.83;11.20;;;11.50;65.30;;;;;;12909894;23;20171;-90
2022/03/01 14:11:13;;;;;;;17.00;9.87;;;11.70;64.70;;;;;;12866516;23;20959;-91
2022/03/01 14:16:26;;;;;;;20.70;11.40;;;10.70;56.30;;;;;;12899103;23;20220;-91
2022/03/01 14:21:29;;;;;;;19.17;12.07;;;11.30;65.50;;;;;;12937840;23;20687;-91
2022/03/01 14:26:32;;;;;;;14.30;9.80;;;11.50;62.90;;;;;;12867651;23;20186;-91
2022/03/01 14:31:38;;;;;;;17.97;11.53;;;10.60;61.40;;;;;;12892289;23;20198;-91
2022/03/01 14:36:41;;;;;;;13.93;10.07;;;12.10;64.80;;;;;;12895462;23;20248;-91
2022/03/01 14:41:44;;;;;;;18.77;11.13;;;12.10;50.60;;;;;;12892012;23;20235;-90
2022/03/01 14:46:46;;;;;;;19.23;10.70;;;12.30;64.00;;;;;;12867047;23;20206;-91
2022/03/01 14:51:49;;;;;;;19.33;11.00;;;13.00;62.60;;;;;;12892174;23;20194;-91
2022/03/01 14:56:52;;;;;;;17.93;10.60;;;13.10;62.70;;;;;;12911644;23;20166;-91
2022/03/01 15:01:54;;;;;;;16.17;10.00;;;13.20;61.70;;;;;;12868154;23;20178;-89
2022/03/01 15:06:57;;;;;;;17.43;11.07;;;13.30;61.60;;;;;;12897687;22;20171;-90
2022/03/01 15:11:59;;;;;;;16.30;9.80;;;13.40;61.30;;;;;;12949840;22;20220;-90
2022/03/01 15:17:02;;;;;;;16.20;10.67;;;13.40;61.10;;;;;;12954477;22;20253;-90
2022/03/01 15:22:07;;;;;;;14.87;9.53;;;13.50;61.10;;;;;;12956284;22;20241;-90
2022/03/01 15:27:10;;;;;;;17.50;9.70;;;13.30;61.20;;;;;;12955833;22;20217;-92
2022/03/01 15:32:13;;;;;;;14.57;9.63;;;13.30;61.20;;;;;;12982311;22;20325;-91
2022/03/01 15:37:16;;;;;;;12.47;8.53;;;13.10;61.50;;;;;;12957520;22;20214;-90
2022/03/01 15:42:19;;;;;;;16.90;10.07;;;12.80;62.40;;;;;;12957872;22;20202;-91
2022/03/01 15:47:21;;;;;;;27.03;10.90;;;11.90;60.60;;;;;;12956604;22;20237;-91
2022/03/01 15:52:26;;;;;;;14.20;9.83;;;11.10;56.40;;;;;;12981497;22;20255;-90
2022/03/01 15:57:28;;;;;;;14.70;8.90;;;10.00;65.40;;;;;;12999920;22;20226;-89
2022/03/01 16:02:31;;;;;;;18.27;9.60;;;9.10;69.00;;;;;;12955234;22;20275;-86
2022/03/01 16:07:34;;;;;;;20.27;11.47;;;10.00;66.50;;;;;;12919982;23;20167;-86
2022/03/01 16:12:37;;;;;;;17.63;9.07;;;8.30;60.70;;;;;;12907466;23;20172;-96
2022/03/01 16:17:39;;;;;;;21.30;9.93;;;9.20;70.30;;;;;;12900633;23;20203;-86
2022/03/01 16:22:42;;;;;;;17.87;9.10;;;11.30;58.10;;;;;;12911274;23;20562;-86
2022/03/01 16:27:45;;;;;;;19.37;8.77;;;10.80;57.70;;;;;;12903487;23;20566;-86
2022/03/01 16:32:48;;;;;;;16.63;9.13;;;10.30;58.90;;;;;;12929708;23;20171;-86
2022/03/01 16:37:50;;;;;;;17.93;8.93;;;10.10;60.60;;;;;;12901051;23;20170;-86
2022/03/01 16:42:53;;;;;;;17.13;10.00;;;9.90;61.40;;;;;;12929244;23;20221;-86
2022/03/01 16:47:57;;;;;;;14.53;7.37;;;9.60;62.60;;;;;;12928229;23;20251;-86
2022/03/01 16:53:00;;;;;;;15.27;7.37;;;10.00;63.20;;;;;;12875515;23;20281;-86
2022/03/01 16:58:03;;;;;;;10.07;6.67;;;11.10;61.40;;;;;;12926836;23;20232;-86
2022/03/01 17:03:08;;;;;;;14.93;6.73;;;11.80;59.90;;;;;;12921848;23;20174;-86
2022/03/01 17:08:11;;;;;;;10.53;7.60;;;12.00;59.30;;;;;;12890499;23;20217;-87
2022/03/01 17:13:15;;;;;;;12.53;7.60;;;12.10;59.80;;;;;;12889960;23;20644;-86
2022/03/01 17:18:18;;;;;;;15.53;8.13;;;12.40;59.00;;;;;;12891221;23;20305;-86
2022/03/01 17:23:21;;;;;;;12.77;7.33;;;11.90;59.80;;;;;;12918393;23;20193;-86
2022/03/01 17:28:23;;;;;;;12.13;7.37;;;11.30;60.90;;;;;;12918199;23;20190;-86
2022/03/01 17:33:26;;;;;;;14.60;7.40;;;11.20;62.40;;;;;;12890346;23;20175;-86
2022/03/01 17:38:28;;;;;;;16.80;8.87;;;11.70;61.60;;;;;;12865289;23;20220;-86
2022/03/01 17:43:31;;;;;;;13.43;7.33;;;12.20;59.60;;;;;;12890747;23;20202;-86
2022/03/01 17:48:34;;;;;;;14.23;8.20;;;12.40;60.10;;;;;;12908776;23;20182;-86
2022/03/01 17:53:36;;;;;;;21.73;10.73;;;12.20;60.50;;;;;;12890620;23;20491;-87
2022/03/01 17:58:39;;;;;;;23.70;13.13;;;11.80;60.50;;;;;;12864162;23;20177;-86
2022/03/01 18:03:42;;;;;;;13.47;7.37;;;10.70;62.80;;;;;;12885345;23;20224;-86
2022/03/01 18:08:46;;;;;;;14.80;8.53;;;11.30;63.60;;;;;;12904232;23;20190;-86
2022/03/01 18:13:53;;;;;;;15.90;8.20;;;11.80;62.10;;;;;;12888161;23;20236;-87
2022/03/01 18:18:55;;;;;;;12.93;8.03;;;12.40;61.30;;;;;;12908063;23;20166;-86
2022/03/01 18:23:59;;;;;;;13.13;7.67;;;12.60;60.70;;;;;;12906690;23;20166;-87
2022/03/01 18:29:02;;;;;;;11.23;7.43;;;12.60;60.50;;;;;;12884978;23;20233;-86
2022/03/01 18:34:06;;;;;;;14.40;8.30;;;12.20;61.30;;;;;;12913213;23;20166;-87
2022/03/01 18:39:11;;;;;;;24.20;13.63;;;12.10;61.80;;;;;;12905893;23;20173;-86
2022/03/01 18:44:14;;;;;;;16.07;9.07;;;11.90;61.00;;;;;;12886932;23;20673;-87
2022/03/01 18:49:17;;;;;;;15.33;9.83;;;11.60;63.50;;;;;;12913586;23;20498;-86
2022/03/01 18:54:19;;;;;;;21.90;11.27;;;11.60;63.10;;;;;;12913549;23;20163;-86
2022/03/01 18:59:22;;;;;;;13.97;8.83;;;11.20;63.80;;;;;;12930233;23;20174;-86
2022/03/01 19:04:25;;;;;;;14.87;8.93;;;11.60;63.80;;;;;;12887197;23;20170;-86
2022/03/01 19:09:27;;;;;;;17.17;8.63;;;11.90;62.70;;;;;;12884723;23;20536;-86
2022/03/01 19:14:30;;;;;;;15.67;8.83;;;11.60;63.60;;;;;;12900318;23;20166;-85
2022/03/01 19:19:32;;;;;;;22.90;10.87;;;11.80;63.30;;;;;;12882794;23;20200;-86
2022/03/01 19:24:35;;;;;;;17.87;10.13;;;11.90;63.00;;;;;;12882543;23;20232;-86
2022/03/01 19:29:38;;;;;;;16.70;9.63;;;11.90;63.00;;;;;;12908534;23;20247;-86
2022/03/01 19:34:40;;;;;;;22.57;10.77;;;11.90;63.10;;;;;;12880292;23;20516;-86
2022/03/01 19:39:43;;;;;;;17.27;10.00;;;11.90;62.90;;;;;;12882048;23;20174;-86
2022/03/01 19:44:48;;;;;;;19.20;9.90;;;12.10;62.80;;;;;;12908153;23;20207;-86
2022/03/01 19:49:50;;;;;;;19.13;10.30;;;12.30;62.50;;;;;;12881864;23;20193;-86
2022/03/01 19:54:53;;;;;;;77.00;36.13;;;12.40;62.10;;;;;;12886289;23;20173;-86
2022/03/01 19:59:55;;;;;;;29.47;14.93;;;3.90;62.40;;;;;;12889378;23;20236;-87
2022/03/01 20:04:58;;;;;;;30.37;12.77;;;4.60;99.90;;;;;;12890328;23;20268;-87
2022/03/01 20:10:01;;;;;;;29.87;13.73;;;8.40;99.90;;;;;;12933904;23;20660;-86
2022/03/01 20:15:06;;;;;;;24.93;11.67;;;10.50;89.40;;;;;;12916665;23;20167;-87
2022/03/01 20:20:10;;;;;;;25.30;13.17;;;11.30;81.90;;;;;;12917086;23;20173;-87
2022/03/01 20:25:16;;;;;;;27.10;14.30;;;11.70;78.00;;;;;;12889214;23;20704;-87
2022/03/01 20:30:19;;;;;;;30.73;12.97;;;11.90;75.70;;;;;;12885208;23;20243;-87
2022/03/01 20:35:21;;;;;;;27.07;15.00;;;12.10;74.20;;;;;;12913282;23;20548;-88
2022/03/01 20:40:25;;;;;;;23.70;13.70;;;12.30;73.00;;;;;;12863959;23;20378;-88
2022/03/01 20:45:28;;;;;;;29.27;15.23;;;12.50;71.80;;;;;;12891075;23;20263;-88
2022/03/01 20:50:36;;;;;;;30.97;14.73;;;12.30;71.50;;;;;;12891384;23;20200;-88
2022/03/01 20:55:39;;;;;;;27.93;13.93;;;12.40;70.90;;;;;;12936622;23;20193;-88
2022/03/01 21:00:42;;;;;;;36.63;15.67;;;12.60;70.00;;;;;;12917459;23;20173;-87
2022/03/01 21:05:46;;;;;;;27.07;15.03;;;12.80;69.00;;;;;;12891273;23;20235;-87
2022/03/01 21:10:49;;;;;;;25.43;14.40;;;12.80;68.50;;;;;;12915896;23;20246;-86
2022/03/01 21:15:52;;;;;;;32.73;15.50;;;12.70;68.90;;;;;;12919612;23;20220;-87
2022/03/01 21:20:55;;;;;;;30.77;15.80;;;12.70;68.00;;;;;;12866202;23;20228;-86
2022/03/01 21:25:58;;;;;;;34.10;16.00;;;12.60;68.20;;;;;;12867972;23;20524;-86
2022/03/01 21:31:01;;;;;;;33.87;17.03;;;12.70;67.80;;;;;;12892939;23;20190;-86
2022/03/01 21:36:04;;;;;;;29.40;15.80;;;12.60;67.80;;;;;;12892427;23;20211;-86
2022/03/01 21:41:07;;;;;;;33.73;15.73;;;12.60;67.50;;;;;;12921468;23;20170;-86
2022/03/01 21:46:09;;;;;;;38.97;19.07;;;12.60;67.50;;;;;;12895511;23;20576;-86
2022/03/01 21:51:12;;;;;;;27.27;16.20;;;12.40;66.70;;;;;;12922242;23;20263;-86
2022/03/01 21:56:14;;;;;;;32.23;18.10;;;11.90;68.70;;;;;;12920647;23;20564;-85
2022/03/01 22:01:18;;;;;;;31.97;16.57;;;12.10;68.30;;;;;;12904801;23;20194;-85
2022/03/01 22:06:22;;;;;;;28.93;15.90;;;12.40;67.60;;;;;;12945223;23;20170;-86
2022/03/01 22:11:24;;;;;;;28.73;15.27;;;12.50;66.90;;;;;;12941595;22;20202;-85
2022/03/01 22:16:27;;;;;;;31.63;17.07;;;12.50;66.80;;;;;;12979233;22;20229;-86
2022/03/01 22:21:30;;;;;;;38.37;20.50;;;12.30;67.10;;;;;;12952937;22;20244;-86
2022/03/01 22:26:33;;;;;;;25.50;14.97;;;12.30;66.20;;;;;;12989441;22;20261;-87
2022/03/01 22:31:38;;;;;;;31.53;15.87;;;12.40;67.00;;;;;;12952474;22;20249;-86
2022/03/01 22:36:41;;;;;;;30.53;16.10;;;12.50;66.50;;;;;;12978106;22;20231;-86
2022/03/01 22:41:44;;;;;;;29.17;16.73;;;12.60;66.20;;;;;;12953345;22;20433;-86
2022/03/01 22:46:47;;;;;;;27.63;15.60;;;12.60;65.90;;;;;;12984672;22;20229;-86
2022/03/01 22:51:49;;;;;;;28.90;16.17;;;12.60;65.70;;;;;;12978838;22;20201;-85
2022/03/01 22:56:52;;;;;;;30.37;15.80;;;12.60;65.60;;;;;;12950594;22;20237;-86
2022/03/01 23:01:55;;;;;;;28.70;16.40;;;12.70;65.40;;;;;;12977236;22;20170;-85
2022/03/01 23:12:19;;;;;;;27.43;16.03;;;12.70;65.30;;;;;;12993688;22;20178;-84
2022/03/01 23:17:22;;;;;;;29.07;15.93;;;12.60;65.20;;;;;;12927388;22;20278;-86
2022/03/01 23:22:25;;;;;;;26.97;16.00;;;12.60;65.30;;;;;;12955226;22;20297;-86
2022/03/01 23:27:28;;;;;;;30.20;16.17;;;12.50;65.30;;;;;;12982821;22;20221;-85
2022/03/01 23:32:31;;;;;;;31.33;18.27;;;12.50;65.30;;;;;;12957291;22;20250;-85
2022/03/01 23:37:34;;;;;;;30.90;16.90;;;12.40;65.40;;;;;;12955658;22;20250;-85
2022/03/01 23:42:37;;;;;;;31.03;17.50;;;12.20;65.90;;;;;;12931398;22;20213;-85
2022/03/01 23:47:39;;;;;;;34.53;17.60;;;12.30;65.60;;;;;;12980117;22;20241;-85
2022/03/01 23:52:42;;;;;;;29.30;15.80;;;12.30;65.70;;;;;;12981922;22;20233;-86
2022/03/01 23:57:45;;;;;;;30.10;17.63;;;12.20;65.70;;;;;;12946344;22;20208;-85
